Terminal Aerodrome Forecast
Issued by NWS

Home | Current Version | Previous Version | Text Only | Print | Product List | Glossary On
Versions: 1 2 3 4 5 6 7 8 9 10 11 12
000
FTUS43 KMQT 242321
TAFCMX
TAF
KCMX 242321Z 2500/2524 32008KT P6SM BKN050
     FM250400 36009KT P6SM SCT050
     FM251600 32008KT P6SM FEW200
     FM251800 29009KT P6SM FEW250=

USA.gov is the U.S. government's official web portal to all federal, state and local government web resources and services.